Time;durP1;ratioP1;P1;durP2;ratioP2;P2;SDS_P1;SDS_P2;PMS_P1;PMS_P2;Temp;Humidity;BMP_temperature;BMP_pressure;BME280_temperature;BME280_humidity;BME280_pressure;Samples;Min_cycle;Max_cycle;Signal;HPM_P1;HPM_P2
2021/08/02 00:01:30;;;;;;;20.95;12.32;;;27.40;60.70;;;;;;4164236;28;20061;-50
2021/08/02 00:03:51;;;;;;;8.30;5.20;;;27.40;60.70;;;;;;4184349;28;20053;-47
2021/08/02 00:05:54;;;;;;;6.90;5.18;;;27.40;60.80;;;;;;4184408;28;20047;-50
2021/08/02 00:07:59;;;;;;;11.15;7.72;;;27.40;60.70;;;;;;4184322;28;20537;-46
2021/08/02 00:10:09;;;;;;;8.05;6.10;;;27.30;60.70;;;;;;4184270;28;20049;-47
2021/08/02 00:12:26;;;;;;;6.68;4.25;;;27.40;60.60;;;;;;4184331;28;20050;-46
2021/08/02 00:14:29;;;;;;;7.30;4.13;;;27.30;61.10;;;;;;4184125;28;20049;-51
2021/08/02 00:16:33;;;;;;;8.73;4.47;;;27.40;61.00;;;;;;4166876;28;20078;-48
2021/08/02 00:18:35;;;;;;;9.10;4.93;;;27.30;60.80;;;;;;4184066;28;20055;-52
2021/08/02 00:20:38;;;;;;;10.43;6.90;;;27.30;61.00;;;;;;4184052;28;20045;-51
2021/08/02 00:22:41;;;;;;;5.82;5.10;;;27.30;60.90;;;;;;4184208;28;20045;-47
2021/08/02 00:24:43;;;;;;;5.15;3.95;;;27.30;61.10;;;;;;4183945;28;20045;-51
2021/08/02 00:26:46;;;;;;;8.85;6.20;;;27.30;61.10;;;;;;4183926;28;20045;-53
2021/08/02 00:28:48;;;;;;;7.45;4.93;;;27.40;60.70;;;;;;4183978;28;20049;-48
2021/08/02 00:30:52;;;;;;;8.00;4.30;;;27.30;60.70;;;;;;4183809;28;20113;-49
2021/08/02 00:32:54;;;;;;;9.13;5.80;;;27.30;60.70;;;;;;4183869;28;20068;-52
2021/08/02 00:34:56;;;;;;;10.30;7.00;;;27.30;60.80;;;;;;4183833;28;20056;-52
2021/08/02 00:37:02;;;;;;;4.68;3.92;;;27.30;60.70;;;;;;4183723;28;20049;-50
2021/08/02 00:39:07;;;;;;;5.55;4.00;;;27.30;61.00;;;;;;4183600;28;20050;-51
2021/08/02 00:41:19;;;;;;;5.55;3.97;;;27.40;61.00;;;;;;4183650;28;20050;-53
2021/08/02 00:43:42;;;;;;;5.78;4.18;;;27.40;60.40;;;;;;4181563;28;20058;-53
2021/08/02 00:45:45;;;;;;;6.65;4.05;;;27.40;60.30;;;;;;4183775;28;20052;-55
2021/08/02 00:48:05;;;;;;;8.52;5.78;;;27.40;60.70;;;;;;4183593;28;20046;-54
2021/08/02 00:50:14;;;;;;;6.03;4.20;;;27.30;60.70;;;;;;4183632;28;20041;-55
2021/08/02 00:52:21;;;;;;;4.90;4.15;;;27.40;60.90;;;;;;4183600;28;20052;-54
2021/08/02 00:54:26;;;;;;;7.90;4.90;;;27.40;60.30;;;;;;4183569;28;20047;-55
2021/08/02 00:56:32;;;;;;;;;;;27.30;60.40;;;;;;4183902;28;20055;-53
2021/08/02 00:58:36;;;;;;;4.93;3.90;;;27.30;60.60;;;;;;4183404;28;19920;-54
2021/08/02 01:00:39;;;;;;;10.63;5.40;;;27.30;60.80;;;;;;4183397;28;20045;-56
2021/08/02 01:02:47;;;;;;;4.03;3.20;;;27.30;60.50;;;;;;4183418;28;20110;-56
2021/08/02 01:04:50;;;;;;;5.32;3.85;;;27.30;60.80;;;;;;4183336;28;20049;-56
2021/08/02 01:06:55;;;;;;;5.72;3.67;;;27.30;60.40;;;;;;4183384;28;20053;-55
2021/08/02 01:09:02;;;;;;;10.23;5.07;;;27.30;60.50;;;;;;4183280;28;20053;-56
2021/08/02 01:11:09;;;;;;;5.20;3.88;;;27.30;60.20;;;;;;4183194;28;20109;-56
2021/08/02 01:13:16;;;;;;;3.88;3.38;;;27.30;60.60;;;;;;4183283;28;20049;-54
2021/08/02 01:15:20;;;;;;;6.38;5.25;;;27.30;60.30;;;;;;4183210;28;20057;-55
2021/08/02 01:17:23;;;;;;;5.57;4.13;;;27.30;60.10;;;;;;4183113;28;20132;-55
2021/08/02 01:19:26;;;;;;;4.40;3.97;;;27.30;60.10;;;;;;4183191;28;20045;-54
2021/08/02 01:21:32;;;;;;;4.63;3.30;;;27.30;60.20;;;;;;4183257;28;20049;-54
2021/08/02 01:23:36;;;;;;;6.13;4.15;;;27.30;60.10;;;;;;4183196;28;20048;-54
2021/08/02 01:25:38;;;;;;;19.45;11.57;;;27.30;59.90;;;;;;4183169;28;20442;-54
2021/08/02 01:27:46;;;;;;;8.30;4.22;;;27.30;59.80;;;;;;4183367;28;20045;-48
2021/08/02 01:30:14;;;;;;;11.60;5.35;;;27.30;59.80;;;;;;4183316;28;20049;-51
2021/08/02 01:32:18;;;;;;;6.78;4.82;;;27.30;59.90;;;;;;4183183;28;20045;-48
2021/08/02 01:34:20;;;;;;;;;;;27.30;59.50;;;;;;4183470;28;20051;-48
2021/08/02 01:36:22;;;;;;;5.32;4.82;;;27.30;59.90;;;;;;4183301;28;19925;-46
2021/08/02 01:38:26;;;;;;;7.88;5.05;;;27.30;59.50;;;;;;4182950;28;20045;-47
2021/08/02 01:40:29;;;;;;;7.40;4.78;;;27.30;59.30;;;;;;4183056;28;20052;-53
2021/08/02 01:42:31;;;;;;;9.85;5.40;;;27.30;59.20;;;;;;4182972;28;20053;-52
2021/08/02 01:44:33;;;;;;;7.55;4.63;;;27.30;59.20;;;;;;4182992;28;20052;-52
2021/08/02 01:46:47;;;;;;;8.10;5.05;;;27.30;59.30;;;;;;4182904;28;20052;-50
2021/08/02 01:49:19;;;;;;;6.03;4.95;;;27.30;59.10;;;;;;4183109;28;20057;-51
2021/08/02 01:51:45;;;;;;;6.55;4.97;;;27.30;59.10;;;;;;4182846;28;20077;-49
2021/08/02 01:54:05;;;;;;;9.50;4.60;;;27.30;59.20;;;;;;4182863;28;20052;-50
2021/08/02 01:56:23;;;;;;;4.80;3.92;;;27.30;59.00;;;;;;4182887;28;20045;-48
2021/08/02 01:58:29;;;;;;;6.95;3.88;;;27.30;59.00;;;;;;4182593;28;20049;-47
2021/08/02 02:00:41;;;;;;;6.25;4.43;;;27.30;59.20;;;;;;4182747;28;20050;-48
2021/08/02 02:02:54;;;;;;;4.70;3.58;;;27.30;59.00;;;;;;4182596;28;20095;-44
2021/08/02 02:05:17;;;;;;;5.20;4.18;;;27.30;59.10;;;;;;4182812;28;20080;-46
2021/08/02 02:07:22;;;;;;;9.63;4.32;;;27.30;58.80;;;;;;4182884;28;20049;-46
2021/08/02 02:09:25;;;;;;;6.00;3.58;;;27.30;58.70;;;;;;4182714;28;20052;-45
2021/08/02 02:11:28;;;;;;;5.78;4.40;;;27.30;59.00;;;;;;4182475;28;20045;-47
2021/08/02 02:13:35;;;;;;;7.03;4.77;;;27.20;59.00;;;;;;4182529;28;20049;-44
2021/08/02 02:15:39;;;;;;;6.93;3.85;;;27.30;58.90;;;;;;4182538;28;20050;-45
2021/08/02 02:17:42;;;;;;;7.95;5.40;;;27.30;59.10;;;;;;4182479;28;20050;-46
2021/08/02 02:19:45;;;;;;;5.13;4.30;;;27.30;58.70;;;;;;4182345;28;20049;-45
2021/08/02 02:21:50;;;;;;;6.88;4.80;;;27.30;58.70;;;;;;4182410;28;20060;-48
2021/08/02 02:23:54;;;;;;;10.93;6.82;;;27.20;58.60;;;;;;4182370;28;20046;-46
2021/08/02 02:25:57;;;;;;;9.55;5.00;;;27.30;58.80;;;;;;4182075;28;20045;-47
2021/08/02 02:27:59;;;;;;;5.53;4.55;;;27.20;58.70;;;;;;4182315;28;20045;-46
2021/08/02 02:30:05;;;;;;;6.63;4.45;;;27.20;58.60;;;;;;4182314;28;20051;-46
2021/08/02 02:32:08;;;;;;;6.85;4.03;;;27.20;58.60;;;;;;4182157;28;20053;-47
2021/08/02 02:34:14;;;;;;;6.25;5.15;;;27.20;58.50;;;;;;4182188;28;20054;-47
2021/08/02 02:36:17;;;;;;;5.03;3.92;;;27.20;58.40;;;;;;4182181;28;20087;-46
2021/08/02 02:38:20;;;;;;;7.22;4.43;;;27.20;58.70;;;;;;4182032;28;20057;-45
2021/08/02 02:40:22;;;;;;;7.63;4.70;;;27.30;58.50;;;;;;4182065;28;20042;-45
2021/08/02 02:42:25;;;;;;;5.05;4.38;;;27.20;58.40;;;;;;4181857;28;20063;-48
2021/08/02 02:44:28;;;;;;;5.03;4.00;;;27.30;58.40;;;;;;4182297;28;20045;-46
2021/08/02 02:46:32;;;;;;;6.70;5.47;;;27.30;58.30;;;;;;4182267;28;20049;-45
2021/08/02 02:48:35;;;;;;;4.50;4.10;;;27.20;58.20;;;;;;4182045;28;20056;-44
2021/08/02 02:50:38;;;;;;;6.47;4.68;;;27.30;58.40;;;;;;4181910;28;20049;-45
2021/08/02 02:52:41;;;;;;;7.70;4.18;;;27.30;58.20;;;;;;4182045;28;20049;-49
2021/08/02 02:54:47;;;;;;;7.53;5.38;;;27.20;58.30;;;;;;4182001;28;20049;-46
2021/08/02 02:56:53;;;;;;;4.65;3.22;;;27.20;58.30;;;;;;4182037;28;20054;-47
2021/08/02 02:58:55;;;;;;;6.53;4.85;;;27.20;58.60;;;;;;4181983;28;20049;-46
2021/08/02 03:00:57;;;;;;;7.03;4.43;;;27.20;58.00;;;;;;4182056;28;20045;-46
2021/08/02 03:03:00;;;;;;;9.02;5.63;;;27.20;58.20;;;;;;4182215;28;20050;-46
2021/08/02 03:05:04;;;;;;;9.68;5.13;;;27.20;58.10;;;;;;4182091;28;20080;-44
2021/08/02 03:07:10;;;;;;;8.15;5.72;;;27.20;58.00;;;;;;4182106;28;20046;-44
2021/08/02 03:09:17;;;;;;;12.73;5.30;;;27.20;58.00;;;;;;4181925;28;20046;-44
2021/08/02 03:11:20;;;;;;;6.88;4.45;;;27.20;57.90;;;;;;4182216;28;20045;-43
2021/08/02 03:13:23;;;;;;;12.37;6.63;;;27.20;58.20;;;;;;4182460;28;20057;-42
2021/08/02 03:15:25;;;;;;;12.68;8.80;;;27.20;58.70;;;;;;4182081;28;20050;-43
2021/08/02 03:17:27;;;;;;;12.75;6.25;;;27.20;58.40;;;;;;4182360;28;20054;-45
2021/08/02 03:19:29;;;;;;;12.32;6.30;;;27.20;58.70;;;;;;4182270;28;20049;-42
2021/08/02 03:21:32;;;;;;;12.15;5.03;;;27.00;59.10;;;;;;4182336;28;20051;-44
2021/08/02 03:24:00;;;;;;;9.98;3.92;;;27.10;59.10;;;;;;4182284;28;20045;-43
2021/08/02 03:26:16;;;;;;;3.88;3.45;;;27.00;59.00;;;;;;4180427;28;20046;-43
2021/08/02 03:28:37;;;;;;;5.38;3.70;;;27.00;58.90;;;;;;4182196;28;20050;-44
2021/08/02 03:30:41;;;;;;;7.50;4.65;;;27.00;58.70;;;;;;4182278;28;20063;-44
2021/08/02 03:32:45;;;;;;;;;;;27.00;58.50;;;;;;4182659;28;20061;-44
2021/08/02 03:34:58;;;;;;;6.07;3.15;;;26.90;58.40;;;;;;4182335;28;19929;-50
2021/08/02 03:37:06;;;;;;;6.03;3.00;;;26.90;58.30;;;;;;4182992;28;20061;-50
2021/08/02 03:39:08;;;;;;;5.43;3.38;;;26.90;58.50;;;;;;4185131;28;20052;-50
2021/08/02 03:41:12;;;;;;;5.57;2.92;;;27.00;58.60;;;;;;4185355;28;20052;-49
2021/08/02 03:43:16;;;;;;;7.27;3.33;;;26.90;58.60;;;;;;4185273;28;20061;-49
2021/08/02 03:45:19;;;;;;;4.07;3.35;;;27.00;58.90;;;;;;4195699;28;20048;-48
2021/08/02 03:47:23;;;;;;;6.60;3.50;;;27.00;58.70;;;;;;4201732;28;20071;-48
2021/08/02 03:49:26;;;;;;;7.05;2.85;;;26.90;59.10;;;;;;4201687;28;20496;-43
2021/08/02 03:51:44;;;;;;;2.83;2.17;;;26.90;59.30;;;;;;4201645;28;20045;-49
2021/08/02 03:53:50;;;;;;;7.43;3.28;;;26.90;59.00;;;;;;4201638;28;20049;-50
2021/08/02 03:55:52;;;;;;;7.35;2.65;;;26.90;59.00;;;;;;4201787;28;20053;-52
2021/08/02 03:57:56;;;;;;;4.40;2.10;;;27.00;59.00;;;;;;4201636;28;20047;-49
2021/08/02 03:59:58;;;;;;;3.72;2.45;;;27.00;58.90;;;;;;4201383;28;20049;-46
2021/08/02 04:02:00;;;;;;;2.63;1.83;;;27.00;58.80;;;;;;4201460;28;20112;-47
2021/08/02 04:04:02;;;;;;;6.93;2.15;;;27.10;58.90;;;;;;4201514;28;20072;-44
2021/08/02 04:06:05;;;;;;;4.43;2.65;;;27.00;58.90;;;;;;4201546;28;20051;-47
2021/08/02 04:08:07;;;;;;;5.00;2.72;;;27.00;58.70;;;;;;4201586;28;20089;-44
2021/08/02 04:10:09;;;;;;;2.33;2.13;;;27.10;58.80;;;;;;4201489;28;20049;-43
2021/08/02 04:12:11;;;;;;;2.60;1.85;;;27.10;58.90;;;;;;4201621;28;20056;-44
2021/08/02 04:14:13;;;;;;;2.83;2.10;;;27.10;58.70;;;;;;4199723;28;20069;-44
2021/08/02 04:16:16;;;;;;;2.60;1.75;;;27.10;58.90;;;;;;4184904;28;20065;-44
2021/08/02 04:18:18;;;;;;;4.07;1.67;;;27.00;58.90;;;;;;4184972;28;20060;-44
2021/08/02 04:20:20;;;;;;;3.42;1.98;;;27.10;58.90;;;;;;4184736;28;20058;-49
2021/08/02 04:22:22;;;;;;;3.78;1.83;;;27.10;58.90;;;;;;4168144;28;20042;-43
2021/08/02 04:24:24;;;;;;;4.53;1.95;;;27.10;59.00;;;;;;4168364;28;20399;-43
2021/08/02 04:26:27;;;;;;;3.90;2.13;;;27.10;59.00;;;;;;4168133;28;20046;-45
2021/08/02 04:28:29;;;;;;;1.42;1.33;;;27.10;59.10;;;;;;4168069;28;20050;-44
2021/08/02 04:30:31;;;;;;;1.77;1.48;;;27.10;59.10;;;;;;4168307;28;20447;-44
2021/08/02 04:32:33;;;;;;;4.97;2.08;;;27.00;59.20;;;;;;4168136;28;20049;-45
2021/08/02 04:34:35;;;;;;;3.10;1.77;;;27.10;59.20;;;;;;4168267;28;20479;-43
2021/08/02 04:36:37;;;;;;;7.80;1.67;;;27.00;59.20;;;;;;4168065;28;20052;-43
2021/08/02 04:38:39;;;;;;;6.05;1.73;;;27.10;59.40;;;;;;4168094;28;20219;-46
2021/08/02 04:40:41;;;;;;;2.47;1.95;;;27.10;59.20;;;;;;4167881;28;20052;-46
2021/08/02 04:42:43;;;;;;;11.48;7.18;;;27.10;59.30;;;;;;4167873;28;20491;-44
2021/08/02 04:44:46;;;;;;;5.32;3.00;;;27.10;59.70;;;;;;4167651;28;20041;-46
2021/08/02 04:46:48;;;;;;;4.75;2.92;;;27.10;59.50;;;;;;4167784;28;20042;-43
2021/08/02 04:48:50;;;;;;;2.00;1.67;;;27.10;59.50;;;;;;4167268;28;20050;-43
2021/08/02 04:50:52;;;;;;;6.32;2.03;;;27.10;59.50;;;;;;4167559;28;20056;-41
2021/08/02 04:52:54;;;;;;;3.25;2.45;;;27.00;59.50;;;;;;4167689;28;20042;-42
2021/08/02 04:54:56;;;;;;;4.63;2.83;;;27.10;59.60;;;;;;4167433;28;20046;-42
2021/08/02 04:56:58;;;;;;;4.00;3.10;;;27.00;59.60;;;;;;4167705;28;20060;-41
2021/08/02 04:59:00;;;;;;;13.50;6.03;;;27.10;59.60;;;;;;4166832;28;20042;-46
2021/08/02 05:01:03;;;;;;;11.10;4.63;;;27.10;59.90;;;;;;4169749;28;20063;-45
2021/08/02 05:03:05;;;;;;;8.63;5.70;;;27.10;59.80;;;;;;4187056;28;20108;-43
2021/08/02 05:05:08;;;;;;;9.57;6.15;;;27.00;59.50;;;;;;4198859;28;20055;-48
2021/08/02 05:07:10;;;;;;;11.55;8.10;;;27.00;59.80;;;;;;4193559;28;20071;-51
2021/08/02 05:09:12;;;;;;;10.02;6.97;;;27.00;59.80;;;;;;4182228;28;20132;-45
2021/08/02 05:11:14;;;;;;;7.88;6.70;;;27.00;59.90;;;;;;4182653;28;20079;-44
2021/08/02 05:13:16;;;;;;;9.30;6.97;;;27.00;60.00;;;;;;4182478;28;20056;-44
2021/08/02 05:15:19;;;;;;;11.30;6.80;;;27.00;59.90;;;;;;4182893;28;20123;-45
2021/08/02 05:17:21;;;;;;;11.70;9.07;;;27.00;60.00;;;;;;4182859;28;20045;-43
2021/08/02 05:19:23;;;;;;;19.73;16.10;;;27.00;60.00;;;;;;4182521;28;20050;-42
2021/08/02 05:21:25;;;;;;;9.68;7.78;;;27.00;60.10;;;;;;4182550;28;20046;-43
2021/08/02 05:23:27;;;;;;;12.35;7.55;;;27.00;60.10;;;;;;4182593;28;20056;-43
2021/08/02 05:25:29;;;;;;;15.13;10.40;;;27.00;60.20;;;;;;4182195;28;20050;-42
2021/08/02 05:27:31;;;;;;;17.42;11.45;;;27.00;60.30;;;;;;4182169;28;20052;-42
2021/08/02 05:29:33;;;;;;;14.88;8.77;;;27.00;60.40;;;;;;4182560;28;20049;-43
2021/08/02 05:31:35;;;;;;;15.10;9.90;;;27.10;60.40;;;;;;4182282;28;20053;-44
2021/08/02 05:33:37;;;;;;;19.98;11.98;;;27.00;60.30;;;;;;4182468;28;20084;-45
2021/08/02 05:35:39;;;;;;;13.52;8.20;;;27.10;60.40;;;;;;4182429;28;20052;-44
2021/08/02 05:37:41;;;;;;;13.27;7.78;;;27.10;60.40;;;;;;4182648;28;20056;-43
2021/08/02 05:39:43;;;;;;;14.30;8.82;;;27.10;60.70;;;;;;4182668;28;20056;-42
2021/08/02 05:41:45;;;;;;;19.50;9.55;;;27.10;60.40;;;;;;4182827;28;20052;-43
2021/08/02 05:43:47;;;;;;;12.38;10.75;;;27.10;60.90;;;;;;4182967;28;20056;-45
2021/08/02 05:45:49;;;;;;;13.13;7.90;;;27.10;60.80;;;;;;4183136;28;20045;-40
2021/08/02 05:47:52;;;;;;;19.45;15.95;;;27.10;60.50;;;;;;4183184;28;20053;-41
2021/08/02 05:49:54;;;;;;;14.32;10.35;;;27.20;60.80;;;;;;4183352;28;20053;-46
2021/08/02 05:51:58;;;;;;;22.70;17.88;;;27.20;60.60;;;;;;4183375;28;20045;-48
2021/08/02 05:54:00;;;;;;;22.13;18.48;;;27.20;60.70;;;;;;4182849;28;20057;-46
2021/08/02 05:56:02;;;;;;;17.52;12.88;;;27.20;60.70;;;;;;4165863;28;20422;-47
2021/08/02 05:58:04;;;;;;;18.13;13.88;;;27.20;60.60;;;;;;4182792;28;20113;-48
2021/08/02 06:00:07;;;;;;;17.67;13.07;;;27.20;60.70;;;;;;4182270;28;20041;-48
2021/08/02 06:02:09;;;;;;;16.27;12.23;;;27.20;60.80;;;;;;4183062;28;20052;-51
2021/08/02 06:04:11;;;;;;;16.83;14.15;;;27.20;60.80;;;;;;4182745;28;20045;-41
2021/08/02 06:06:16;;;;;;;16.15;13.77;;;27.20;61.00;;;;;;4182909;28;20046;-42
2021/08/02 06:08:18;;;;;;;17.67;11.95;;;27.20;60.90;;;;;;4182810;28;20105;-43
2021/08/02 06:10:20;;;;;;;21.55;13.98;;;27.30;60.90;;;;;;4182784;28;20109;-42
2021/08/02 06:12:23;;;;;;;18.35;12.73;;;27.30;61.00;;;;;;4183008;28;20491;-43
2021/08/02 06:14:25;;;;;;;15.88;13.15;;;27.20;61.00;;;;;;4182638;28;20083;-47
2021/08/02 06:16:27;;;;;;;17.25;13.82;;;27.30;60.90;;;;;;4182170;28;20050;-45
2021/08/02 06:18:38;;;;;;;15.90;12.40;;;27.30;61.10;;;;;;4181723;28;20061;-43
2021/08/02 06:20:40;;;;;;;24.40;13.02;;;27.30;61.10;;;;;;4182163;28;20045;-50
2021/08/02 06:22:43;;;;;;;18.88;12.35;;;27.30;61.10;;;;;;4164946;28;20049;-50
2021/08/02 06:24:46;;;;;;;14.70;11.40;;;27.30;61.10;;;;;;4181825;28;20057;-48
2021/08/02 06:26:48;;;;;;;23.40;12.50;;;27.30;61.30;;;;;;4182984;28;20084;-51
2021/08/02 06:28:51;;;;;;;17.67;12.30;;;27.30;61.40;;;;;;4165591;28;20072;-46
2021/08/02 06:30:53;;;;;;;20.88;12.70;;;27.30;61.50;;;;;;4181874;28;20076;-47
2021/08/02 06:32:56;;;;;;;18.95;12.70;;;27.30;61.50;;;;;;4182392;28;20080;-48
2021/08/02 06:35:01;;;;;;;18.40;11.95;;;27.30;61.80;;;;;;4132813;28;20513;-43
2021/08/02 06:37:04;;;;;;;19.75;12.52;;;27.30;61.40;;;;;;4165121;28;20086;-40
2021/08/02 06:39:06;;;;;;;16.13;12.68;;;27.40;61.60;;;;;;4182453;28;20041;-40
2021/08/02 06:41:08;;;;;;;16.98;12.18;;;27.30;61.40;;;;;;4182585;28;20049;-41
2021/08/02 06:43:10;;;;;;;21.92;11.98;;;27.30;61.50;;;;;;4182378;28;20410;-42
2021/08/02 06:45:12;;;;;;;17.92;11.75;;;27.40;61.50;;;;;;4182480;28;20045;-42
2021/08/02 06:47:14;;;;;;;15.43;11.68;;;27.30;61.50;;;;;;4182304;28;20045;-42
2021/08/02 06:49:16;;;;;;;18.40;12.52;;;27.40;61.40;;;;;;4182553;28;20072;-42
2021/08/02 06:51:19;;;;;;;14.32;11.32;;;27.40;61.30;;;;;;4182273;28;20049;-43
2021/08/02 06:53:21;;;;;;;15.93;11.93;;;27.40;61.30;;;;;;4182360;28;20092;-43
2021/08/02 06:55:23;;;;;;;22.40;11.85;;;27.30;61.50;;;;;;4182395;28;20054;-44
2021/08/02 06:57:25;;;;;;;19.90;12.13;;;27.30;61.50;;;;;;4182338;28;20049;-44
2021/08/02 06:59:27;;;;;;;21.02;12.82;;;27.30;61.60;;;;;;4182426;28;20050;-42
2021/08/02 07:01:29;;;;;;;16.00;12.02;;;27.30;61.40;;;;;;4182210;28;20046;-43
2021/08/02 07:03:31;;;;;;;18.70;11.88;;;27.30;61.50;;;;;;4182056;28;20049;-43
2021/08/02 07:05:34;;;;;;;16.35;10.88;;;27.30;61.40;;;;;;4182303;28;20042;-43
2021/08/02 07:07:36;;;;;;;19.50;12.88;;;27.30;61.30;;;;;;4182219;28;20053;-41
2021/08/02 07:09:38;;;;;;;20.55;12.75;;;27.30;61.50;;;;;;4182180;28;20045;-42
2021/08/02 07:11:40;;;;;;;19.02;12.48;;;27.30;61.40;;;;;;4184093;28;20042;-40
2021/08/02 07:13:42;;;;;;;15.93;12.20;;;27.30;61.40;;;;;;4185674;28;20050;-40
2021/08/02 07:15:44;;;;;;;17.92;11.60;;;27.30;61.50;;;;;;4185751;28;20057;-40
2021/08/02 07:17:46;;;;;;;14.25;10.90;;;27.30;61.50;;;;;;4185618;28;20052;-40
2021/08/02 07:19:49;;;;;;;17.42;11.52;;;27.30;61.40;;;;;;4185629;28;20041;-40
2021/08/02 07:21:51;;;;;;;14.32;11.77;;;27.30;61.40;;;;;;4185464;28;20041;-40
2021/08/02 07:23:52;;;;;;;17.38;11.40;;;27.30;61.40;;;;;;4185606;28;20045;-41
2021/08/02 07:25:54;;;;;;;16.08;11.55;;;27.30;61.60;;;;;;4185286;28;20041;-40
2021/08/02 07:27:56;;;;;;;23.42;13.25;;;27.30;61.40;;;;;;4185282;28;20076;-42
2021/08/02 07:29:59;;;;;;;17.38;12.60;;;27.30;61.60;;;;;;4184930;28;20045;-40
2021/08/02 07:32:00;;;;;;;18.13;11.52;;;27.30;61.80;;;;;;4184724;28;20067;-41
2021/08/02 07:34:02;;;;;;;15.95;11.48;;;27.20;61.80;;;;;;4185035;28;20046;-41
2021/08/02 07:36:05;;;;;;;17.15;12.18;;;27.20;61.70;;;;;;4185118;28;20049;-40
2021/08/02 07:38:07;;;;;;;16.80;11.50;;;27.20;61.60;;;;;;4184920;28;20072;-47
2021/08/02 07:40:10;;;;;;;16.98;11.68;;;27.30;61.90;;;;;;4185391;28;20050;-47
2021/08/02 07:42:12;;;;;;;17.25;11.57;;;27.30;61.60;;;;;;4185352;28;20042;-44
2021/08/02 07:44:14;;;;;;;15.70;11.45;;;27.30;61.60;;;;;;4185190;28;20042;-47
2021/08/02 07:46:16;;;;;;;16.30;11.55;;;27.40;61.80;;;;;;4185088;28;20049;-46
2021/08/02 07:48:18;;;;;;;15.38;11.23;;;27.40;61.60;;;;;;4185049;28;20050;-45
2021/08/02 07:50:20;;;;;;;16.30;11.40;;;27.40;61.50;;;;;;4185086;28;20069;-45
2021/08/02 07:52:22;;;;;;;19.27;12.02;;;27.40;61.70;;;;;;4184566;28;20059;-45
2021/08/02 07:54:24;;;;;;;16.40;11.43;;;27.40;61.50;;;;;;4184547;28;20079;-47
2021/08/02 07:56:29;;;;;;;19.27;12.13;;;27.40;61.80;;;;;;4167118;28;20124;-49
2021/08/02 07:58:31;;;;;;;;;;;27.40;61.70;;;;;;4167782;28;20058;-48
2021/08/02 08:00:33;;;;;;;18.58;13.57;;;27.40;62.00;;;;;;4167659;28;19945;-46
2021/08/02 08:02:35;;;;;;;17.77;13.00;;;27.40;62.10;;;;;;4185093;28;20049;-42
2021/08/02 08:04:39;;;;;;;17.13;12.37;;;27.40;61.80;;;;;;4183984;28;20045;-49
2021/08/02 08:06:45;;;;;;;21.00;16.80;;;27.40;61.80;;;;;;4183569;28;20053;-43
2021/08/02 08:08:48;;;;;;;20.90;15.57;;;27.40;62.10;;;;;;3834125;28;10000519;-45
2021/08/02 08:10:50;;;;;;;14.60;11.80;;;27.40;62.10;;;;;;4183588;28;20052;-48
2021/08/02 08:12:53;;;;;;;20.20;16.73;;;27.40;62.10;;;;;;4183603;28;20442;-47
2021/08/02 08:14:55;;;;;;;13.25;9.25;;;27.40;62.10;;;;;;4183485;28;20113;-48
2021/08/02 08:16:57;;;;;;;17.98;11.70;;;27.40;62.00;;;;;;4183263;28;20069;-48
2021/08/02 08:18:59;;;;;;;16.88;12.10;;;27.40;62.20;;;;;;4183666;28;20045;-47
2021/08/02 08:21:02;;;;;;;10.05;7.40;;;27.40;62.20;;;;;;4183867;28;20073;-45
2021/08/02 08:23:04;;;;;;;12.15;8.40;;;27.40;62.20;;;;;;4183380;28;20106;-46
2021/08/02 08:25:07;;;;;;;8.45;6.40;;;27.40;62.00;;;;;;4183194;28;20072;-48
2021/08/02 08:27:10;;;;;;;8.80;5.70;;;27.50;62.00;;;;;;4166744;28;20064;-45
2021/08/02 08:29:12;;;;;;;9.07;7.13;;;27.50;62.00;;;;;;4183744;28;20076;-48
2021/08/02 08:31:15;;;;;;;10.40;8.27;;;27.60;61.80;;;;;;4184068;28;20045;-44
2021/08/02 08:33:17;;;;;;;8.73;6.50;;;27.50;61.90;;;;;;4184067;28;20056;-45
2021/08/02 08:35:20;;;;;;;10.48;8.90;;;27.50;61.90;;;;;;4183544;28;20056;-45
2021/08/02 08:37:22;;;;;;;7.97;6.03;;;27.50;61.80;;;;;;4166887;28;20053;-45
2021/08/02 08:39:24;;;;;;;8.82;7.93;;;27.60;61.80;;;;;;4184081;28;20053;-46
2021/08/02 08:41:26;;;;;;;7.15;5.18;;;27.60;61.80;;;;;;4183844;28;20105;-47
2021/08/02 08:43:29;;;;;;;4.93;4.45;;;27.60;61.80;;;;;;4183930;28;20055;-46
2021/08/02 08:45:32;;;;;;;7.10;4.90;;;27.60;61.80;;;;;;4166709;28;20073;-43
2021/08/02 08:47:35;;;;;;;8.45;6.97;;;27.60;61.70;;;;;;4183755;28;20896;-44
2021/08/02 08:49:37;;;;;;;5.22;4.25;;;27.60;61.60;;;;;;4183701;28;20049;-46
2021/08/02 08:51:40;;;;;;;8.30;6.78;;;27.70;61.70;;;;;;4166580;28;20092;-45
2021/08/02 08:53:44;;;;;;;6.82;6.03;;;27.60;61.70;;;;;;4183249;28;20049;-47
2021/08/02 08:55:46;;;;;;;6.28;4.53;;;27.60;61.80;;;;;;4166559;28;20057;-44
2021/08/02 08:57:48;;;;;;;6.03;4.55;;;27.70;61.90;;;;;;4183124;28;20068;-48
2021/08/02 08:59:52;;;;;;;10.05;7.35;;;27.70;61.70;;;;;;4183009;28;20057;-52
2021/08/02 09:02:04;;;;;;;9.93;5.78;;;27.60;61.60;;;;;;4183013;28;20046;-49
2021/08/02 09:04:07;;;;;;;13.65;11.88;;;27.60;61.60;;;;;;4182782;28;20110;-51
2021/08/02 09:06:09;;;;;;;10.63;8.93;;;27.60;61.70;;;;;;4182578;28;20060;-47
2021/08/02 09:08:13;;;;;;;10.60;9.15;;;27.60;61.70;;;;;;4182624;28;20076;-48
2021/08/02 09:10:17;;;;;;;9.73;6.20;;;27.60;61.80;;;;;;4182464;28;20053;-47
2021/08/02 09:12:26;;;;;;;10.07;6.57;;;27.60;61.80;;;;;;4182938;28;20049;-49
2021/08/02 09:14:28;;;;;;;8.38;5.40;;;27.60;61.70;;;;;;4182737;28;20045;-49
2021/08/02 09:16:30;;;;;;;10.25;7.70;;;27.60;61.70;;;;;;4182704;28;20113;-49
2021/08/02 09:18:33;;;;;;;7.18;6.13;;;27.60;61.70;;;;;;4182623;28;20087;-47
2021/08/02 09:20:36;;;;;;;7.55;5.95;;;27.60;61.70;;;;;;4182382;28;20042;-49
2021/08/02 09:22:38;;;;;;;10.75;7.93;;;27.60;61.70;;;;;;4182506;28;20049;-46
2021/08/02 09:24:43;;;;;;;5.53;4.93;;;27.60;61.70;;;;;;4182560;28;20100;-50
2021/08/02 09:26:49;;;;;;;7.10;5.20;;;27.60;61.70;;;;;;4182504;28;20088;-46
2021/08/02 09:28:52;;;;;;;9.88;6.05;;;27.60;61.70;;;;;;4183300;28;20041;-46
2021/08/02 09:31:00;;;;;;;6.63;5.60;;;27.60;61.70;;;;;;4183224;28;20108;-47
2021/08/02 09:33:04;;;;;;;7.28;5.75;;;27.70;61.80;;;;;;4183104;28;20053;-48
2021/08/02 09:35:06;;;;;;;7.45;6.40;;;27.70;61.70;;;;;;4182076;28;20054;-46
2021/08/02 09:37:20;;;;;;;7.95;6.70;;;27.70;61.70;;;;;;4183064;28;20051;-45
2021/08/02 09:39:27;;;;;;;14.10;8.15;;;27.70;61.60;;;;;;4183301;28;20046;-46
2021/08/02 09:41:29;;;;;;;9.93;7.80;;;27.80;61.60;;;;;;4182677;28;20076;-45
2021/08/02 09:43:33;;;;;;;11.65;8.00;;;27.80;61.40;;;;;;4165914;28;20058;-47
2021/08/02 09:45:52;;;;;;;11.30;8.05;;;27.80;61.40;;;;;;4166788;28;20070;-49
2021/08/02 09:47:54;;;;;;;11.68;9.13;;;27.80;61.40;;;;;;4183096;28;20052;-45
2021/08/02 09:49:56;;;;;;;11.07;8.80;;;27.90;61.30;;;;;;4182924;28;20048;-46
2021/08/02 09:52:06;;;;;;;12.02;8.32;;;27.90;61.30;;;;;;4180980;28;20060;-61
2021/08/02 09:54:08;;;;;;;13.38;9.13;;;27.90;61.20;;;;;;4180988;28;20064;-61
2021/08/02 09:56:12;;;;;;;13.40;8.82;;;27.90;61.30;;;;;;4183924;28;20041;-61
2021/08/02 09:58:21;;;;;;;15.90;10.55;;;27.90;61.20;;;;;;4192310;28;20058;-61
2021/08/02 10:00:23;;;;;;;14.80;12.52;;;27.90;61.20;;;;;;4182581;28;20084;-61
2021/08/02 10:02:25;;;;;;;20.52;10.52;;;27.90;61.20;;;;;;4186735;28;20056;-61
2021/08/02 10:04:31;;;;;;;16.17;11.73;;;27.90;61.20;;;;;;4184784;28;20052;-58
2021/08/02 10:06:34;;;;;;;13.70;10.20;;;27.90;61.20;;;;;;4186704;28;20041;-60
2021/08/02 10:08:37;;;;;;;21.13;11.68;;;27.90;61.20;;;;;;3838614;28;10000359;-61
2021/08/02 10:10:40;;;;;;;22.13;11.23;;;27.90;61.20;;;;;;4181200;28;20101;-62
2021/08/02 10:12:48;;;;;;;15.20;10.88;;;28.00;61.20;;;;;;4182910;28;20041;-62
2021/08/02 10:14:55;;;;;;;19.50;10.85;;;27.90;61.20;;;;;;4180837;28;20049;-61
2021/08/02 10:17:08;;;;;;;16.48;11.20;;;28.00;61.10;;;;;;4182706;28;20045;-62
2021/08/02 10:19:13;;;;;;;19.25;12.65;;;28.00;61.10;;;;;;4182593;28;20109;-60
2021/08/02 10:21:16;;;;;;;36.38;29.48;;;28.00;61.30;;;;;;4180428;28;20050;-61
2021/08/02 10:23:25;;;;;;;153.48;105.93;;;28.00;61.30;;;;;;4182283;28;20068;-58
2021/08/02 10:25:38;;;;;;;183.70;163.70;;;28.00;61.30;;;;;;4196730;28;20045;-58
2021/08/02 10:27:41;;;;;;;53.97;28.27;;;28.00;61.30;;;;;;4196787;28;20051;-60
2021/08/02 10:29:44;;;;;;;24.20;13.05;;;28.00;61.30;;;;;;4196270;28;20049;-59
2021/08/02 10:31:47;;;;;;;20.10;11.65;;;28.00;61.30;;;;;;4179245;28;20112;-57
2021/08/02 10:33:50;;;;;;;20.55;12.32;;;28.00;61.20;;;;;;4181730;28;20060;-59
2021/08/02 10:35:52;;;;;;;20.85;11.98;;;28.00;61.30;;;;;;4179921;28;20057;-60
2021/08/02 10:37:59;;;;;;;18.83;12.02;;;28.10;61.10;;;;;;4185160;28;20074;-59
2021/08/02 10:40:09;;;;;;;16.65;11.45;;;28.00;61.10;;;;;;4197847;28;20051;-59